Nearby METAR Reports


NZWN - Wellington Intl, New Zealand
Distance from station: SSW 357km
Updated: 21/06/2018 20:00
Mostly Cloudy
Mostly Cloudy
 Wind from SE
Wind: SE 15 km/h
Temperature: 9°C
Wind Chill: 7°C
Dew Point: 2°C
Humidity: 62%
Barometer: 1021 hPa
Clouds: Mostly Cloudy
Visibility: 10 km
Cloud details: Mostly Cloudy 1067 m
2018/06/21 08:00 NZWN 210800Z AUTO 14008KT 110V200 9999 BKN035/// 09/02 Q1021 NOSIG
NZAA - Auckland Intl Ar, New Zealand
Distance from station: NW 162km
Updated: 21/06/2018 20:00
Clear
Clear
 Wind from SSE
Wind: SSE 13 km/h
Temperature: 10°C
Wind Chill: 8°C
Dew Point: 7°C
Humidity: 82%
Barometer: 1015 hPa
Clouds: Clear
Visibility: 10 km
2018/06/21 08:00 NZAA 210800Z AUTO 15007KT 9999 NCD 10/07 Q1015 NOSIG
 
NZCH - Christchurch Int, New Zealand
Distance from station: SSW 647km
Updated: 21/06/2018 20:00
Clear
Clear
 Wind from calm
Wind: Calm
Temperature: 0°C
Dew Point: -1°C
Humidity: 93%
Barometer: 1021 hPa
Clouds: Clear
Visibility: 10 km
2018/06/21 08:00 NZCH 210800Z AUTO 00000KT 9999 NCD 00/M01 Q1021 NOSIG
YSNF - Norfolk Island A, Australia
Distance from station: NW 1258km
Updated: 21/06/2018 20:00

 Wind from SW
Wind: SW 24 km/h
Temperature: 17°C
Dew Point: 11°C
Humidity: 68%
Barometer: 1015 hPa
Visibility: 10 km
2018/06/21 08:00 YSNF 210800Z AUTO 22013KT 9999 // ////// 17/11 Q1015